Flight Track Log - Related Links

Times and Time Zones

All times are in EDT time to prevent confusion due to time zone crossing. See the CSZ9759 flight status page for this flight to view local times or setup timezone preferences in your user account.

Time Position Orientation Groundspeed Altitude Reporting Facility
EDT Latitude Longitude Course Direction KTS MPH feet Rate Location/Type
Sat 03:25:00 AM 23.2324 114.5544 49° Northeast  Level Estimated
Sat 03:26:00 AM 23.3063 114.6476 49° Northeast  Level Estimated
Sat 03:27:00 AM 23.3801 114.7409 49° Northeast  Level Estimated
Sat 03:28:00 AM 23.4539 114.8343 49° Northeast  Level Estimated
Sat 03:29:00 AM 23.5276 114.9278 49° Northeast  Level Estimated
Sat 03:30:00 AM 23.6013 115.0214 49° Northeast  Level Estimated
Sat 03:31:00 AM 23.6749 115.1151 49° Northeast  Level Estimated
Sat 03:32:00 AM 23.7484 115.2089 49° Northeast  Level Estimated
Sat 03:33:00 AM 23.8219 115.3029 49° Northeast  Level Estimated
Sat 03:34:00 AM 23.8953 115.3969 49° Northeast  Level Estimated
Sat 03:35:00 AM 23.9687 115.4911 50° Northeast  Level Estimated
Sat 03:36:00 AM 24.0420 115.5853 50° Northeast  Level Estimated
Sat 03:37:00 AM 24.1153 115.6797 50° Northeast  Level Estimated
Sat 03:38:00 AM 24.1885 115.7742 50° Northeast  Level Estimated
Sat 03:39:00 AM 24.2616 115.8687 50° Northeast  Level Estimated
Sat 03:40:00 AM 24.3347 115.9634 50° Northeast  Level Estimated
Sat 03:41:00 AM 24.4077 116.0582 50° Northeast  Level Estimated
Sat 03:42:00 AM 24.4807 116.1531 50° Northeast  Level Estimated
Sat 03:43:00 AM 24.5536 116.2482 50° Northeast  Level Estimated
Sat 03:44:00 AM 24.6264 116.3433 50° Northeast  Level Estimated
Sat 03:45:00 AM 24.6992 116.4385 50° Northeast  Level Estimated
Sat 03:46:00 AM 24.7719 116.5339 50° Northeast  Level Estimated
Sat 03:47:00 AM 24.8446 116.6293 50° Northeast  Level Estimated
Sat 03:48:00 AM 24.9172 116.7249 50° Northeast  Level Estimated
Sat 03:49:00 AM 24.9897 116.8206 50° Northeast  Level Estimated
Sat 03:50:00 AM 25.0622 116.9164 50° Northeast  Level Estimated
Sat 03:51:00 AM 25.1346 117.0123 50° Northeast  Level Estimated
Sat 03:52:00 AM 25.2070 117.1083 50° Northeast  Level Estimated
Sat 03:53:00 AM 25.2793 117.2045 50° Northeast  Level Estimated
Sat 03:54:00 AM 25.3515 117.3007 50° Northeast  Level Estimated
Sat 03:55:00 AM 25.4237 117.3971 50° Northeast  Level Estimated
Sat 03:56:00 AM 25.4958 117.4936 50° Northeast  Level Estimated
Sat 03:57:00 AM 25.5678 117.5902 50° Northeast  Level Estimated
Sat 03:58:00 AM 25.6398 117.6869 50° Northeast  Level Estimated
Sat 03:59:00 AM 25.7117 117.7838 50° Northeast  Level Estimated
Sat 04:00:00 AM 25.7836 117.8807 51° Northeast  Level Estimated
Sat 04:01:00 AM 25.8554 117.9778 51° Northeast  Level Estimated
Sat 04:02:00 AM 25.9271 118.0750 51° Northeast  Level Estimated
Sat 04:03:00 AM 25.9988 118.1723 51° Northeast  Level Estimated
Sat 04:04:00 AM 26.0703 118.2697 51° Northeast  Level Estimated
Sat 04:05:00 AM 26.1419 118.3672 51° Northeast  Level Estimated
Sat 04:06:00 AM 26.2133 118.4649 51° Northeast  Level Estimated
Sat 04:07:00 AM 26.2847 118.5627 51° Northeast  Level Estimated
Sat 04:08:00 AM 26.3561 118.6606 51° Northeast  Level Estimated
Sat 04:09:00 AM 26.4273 118.7586 51° Northeast  Level Estimated
Sat 04:10:00 AM 26.4985 118.8568 51° Northeast  Level Estimated
Sat 04:11:00 AM 26.5696 118.9550 51° Northeast  Level Estimated
Sat 04:12:00 AM 26.6407 119.0534 51° Northeast  Level Estimated
Sat 04:13:00 AM 26.7117 119.1519 51° Northeast  Level Estimated
Sat 04:14:00 AM 26.7826 119.2505 51° Northeast  Level Estimated
Sat 04:15:00 AM 26.8535 119.3493 51° Northeast  Level Estimated
Sat 04:16:00 AM 26.9243 119.4482 51° Northeast  Level Estimated
Sat 04:17:00 AM 26.9950 119.5472 51° Northeast  Level Estimated
Sat 04:18:00 AM 27.0656 119.6463 51° Northeast  Level Estimated
Sat 04:19:00 AM 27.1362 119.7456 51° Northeast  Level Estimated
Sat 04:20:00 AM 27.2067 119.8450 51° Northeast  Level Estimated
Sat 04:21:00 AM 27.2772 119.9445 51° Northeast  Level Estimated
Sat 04:22:00 AM 27.3475 120.0441 51° Northeast  Level Estimated
Sat 04:23:00 AM 27.4178 120.1439 52° Northeast  Level Estimated
Sat 04:24:00 AM 27.4881 120.2437 52° Northeast  Level Estimated
Sat 04:25:00 AM 27.5582 120.3438 52° Northeast  Level Estimated
Sat 04:26:00 AM 27.6283 120.4439 52° Northeast  Level Estimated
Sat 04:27:00 AM 27.6983 120.5442 52° Northeast  Level Estimated
Sat 04:28:00 AM 27.7683 120.6446 52° Northeast  Level Estimated
Sat 04:29:00 AM 27.8381 120.7451 52° Northeast  Level Estimated
Sat 04:30:00 AM 27.9079 120.8457 52° Northeast  Level Estimated
Sat 04:31:00 AM 27.9122 120.8519 52° Northeast  Level Estimated
Sat 04:32:00 AM 27.9122 120.8519 North  Level Estimated
Sat 04:33:00 AM 27.9122 120.8519 North  Level Estimated
Sat 04:34:00 AM 27.9122 120.8519 North  Level Estimated
Sat 04:35:00 AM 27.9122 120.8519 North  Level Estimated
Sat 04:36:00 AM 27.9122 120.8519 North  Level Estimated
Sat 04:37:00 AM 27.9122 120.8519 North  Level Estimated
Sat 04:38:00 AM 27.9122 120.8519 North  Level Estimated
Sat 04:39:00 AM 27.9122 120.8519 North  Level Estimated
Sat 04:40:00 AM 27.9122 120.8519 North  Level Estimated
Sat 04:41:00 AM 27.9122 120.8519 North  Level Estimated
Sat 04:42:00 AM 27.9122 120.8519 North  Level Estimated
Sat 04:43:00 AM 27.9122 120.8519 North  Level Estimated
Sat 04:44:00 AM 27.9122 120.8519 North  Level Estimated
Sat 04:45:00 AM 27.9122 120.8519 North  Level Estimated
Sat 04:46:00 AM 27.9122 120.8519 North  Level Estimated

Login

Don't have an account? Register now (free) for customized features, flight alerts, and more!